Time;durP1;ratioP1;P1;durP2;ratioP2;P2;SDS_P1;SDS_P2;PMS_P1;PMS_P2;Temp;Humidity;BMP_temperature;BMP_pressure;BME280_temperature;BME280_humidity;BME280_pressure;Samples;Min_cycle;Max_cycle;Signal;HPM_P1;HPM_P2
2022/03/07 00:01:13;;;;;;;2.57;2.30;;;1.70;99.90;;;;;;5012548;28;20181;-66
2022/03/07 00:03:38;;;;;;;3.70;3.30;;;1.70;99.90;;;;;;5009363;28;20581;-66
2022/03/07 00:06:07;;;;;;;2.27;2.00;;;1.70;99.90;;;;;;5005495;28;20431;-66
2022/03/07 00:08:33;;;;;;;2.83;2.50;;;1.70;99.90;;;;;;5012356;28;20231;-67
2022/03/07 00:10:59;;;;;;;2.33;2.13;;;1.70;99.90;;;;;;5012393;28;20422;-66
2022/03/07 00:13:25;;;;;;;2.40;2.20;;;1.70;99.90;;;;;;5012228;28;20651;-67
2022/03/07 00:15:50;;;;;;;2.10;1.90;;;1.70;99.90;;;;;;5011971;28;20451;-66
2022/03/07 00:18:16;;;;;;;2.37;1.97;;;1.80;99.90;;;;;;5011915;28;20279;-66
2022/03/07 00:20:41;;;;;;;3.33;3.03;;;1.70;99.90;;;;;;5012223;28;20192;-66
2022/03/07 00:23:11;;;;;;;2.10;1.87;;;1.80;99.90;;;;;;5011986;28;20247;-66
2022/03/07 00:25:37;;;;;;;4.50;3.57;;;1.80;99.90;;;;;;5012039;28;20184;-66
2022/03/07 00:28:02;;;;;;;4.60;4.20;;;1.80;99.90;;;;;;5012237;28;20434;-67
2022/03/07 00:30:28;;;;;;;3.63;2.30;;;1.80;99.90;;;;;;5012242;28;20427;-66
2022/03/07 00:32:53;;;;;;;4.63;2.70;;;1.80;99.90;;;;;;5012225;28;20200;-66
2022/03/07 00:35:19;;;;;;;5.40;2.87;;;1.70;99.90;;;;;;5011652;28;20196;-67
2022/03/07 00:37:44;;;;;;;3.20;2.90;;;1.70;99.90;;;;;;5011674;28;20782;-66
2022/03/07 00:40:10;;;;;;;2.43;2.23;;;1.70;99.90;;;;;;5011825;28;20215;-66
2022/03/07 00:42:39;;;;;;;5.10;2.80;;;1.60;99.90;;;;;;5011659;28;20183;-66
2022/03/07 00:45:09;;;;;;;2.63;2.43;;;1.60;99.90;;;;;;5011634;28;20168;-67
2022/03/07 00:47:35;;;;;;;1.70;1.60;;;1.60;99.90;;;;;;5011884;28;20776;-67
2022/03/07 00:50:02;;;;;;;3.43;3.13;;;1.60;99.90;;;;;;5011714;28;20434;-67
2022/03/07 00:52:28;;;;;;;2.73;2.30;;;1.50;99.90;;;;;;5011391;28;20701;-68
2022/03/07 00:54:53;;;;;;;3.60;3.03;;;1.40;99.90;;;;;;5011373;28;20446;-67
2022/03/07 00:57:19;;;;;;;1.70;1.60;;;1.40;99.90;;;;;;5011557;28;20596;-66
2022/03/07 00:59:44;;;;;;;3.50;2.60;;;1.30;99.90;;;;;;5011476;28;20192;-66
2022/03/07 01:02:10;;;;;;;2.57;2.37;;;1.30;99.90;;;;;;5011516;28;20188;-65
2022/03/07 01:04:36;;;;;;;2.27;2.17;;;1.20;99.90;;;;;;5011359;28;20207;-66
2022/03/07 01:07:02;;;;;;;2.43;2.23;;;1.10;99.90;;;;;;5011482;28;20230;-66
2022/03/07 01:09:27;;;;;;;2.70;1.73;;;1.10;99.90;;;;;;5011266;28;20502;-66
2022/03/07 01:11:53;;;;;;;5.13;2.90;;;1.00;99.90;;;;;;5011299;28;20433;-66
2022/03/07 01:14:18;;;;;;;1.80;1.50;;;0.90;99.90;;;;;;5011275;28;20164;-66
2022/03/07 01:16:44;;;;;;;3.67;2.93;;;0.90;99.90;;;;;;5011195;28;20248;-66
2022/03/07 01:19:09;;;;;;;3.30;3.07;;;0.90;99.90;;;;;;5011660;28;20294;-67
2022/03/07 01:21:35;;;;;;;3.77;1.90;;;0.90;99.90;;;;;;5012033;28;20199;-67
2022/03/07 01:24:00;;;;;;;2.20;1.63;;;0.90;99.90;;;;;;5011874;28;20346;-67
2022/03/07 01:26:26;;;;;;;3.73;2.07;;;0.90;99.90;;;;;;5011424;28;20165;-67
2022/03/07 01:28:51;;;;;;;1.90;1.77;;;0.90;99.90;;;;;;5011636;28;20169;-66
2022/03/07 01:31:17;;;;;;;2.43;2.23;;;0.80;99.90;;;;;;5011479;28;20199;-67
2022/03/07 01:33:42;;;;;;;2.73;2.53;;;0.80;99.90;;;;;;5011826;28;20215;-66
2022/03/07 01:36:07;;;;;;;4.27;2.43;;;0.80;99.90;;;;;;5011040;28;20196;-66
2022/03/07 01:38:33;;;;;;;3.23;2.33;;;0.80;99.90;;;;;;5011210;28;20187;-66
2022/03/07 01:40:58;;;;;;;5.17;3.50;;;0.80;99.90;;;;;;5011198;28;20235;-66
2022/03/07 01:43:24;;;;;;;2.90;2.30;;;0.80;99.90;;;;;;5011351;28;20646;-66
2022/03/07 01:45:49;;;;;;;3.07;2.87;;;0.70;99.90;;;;;;5011477;28;20199;-66
2022/03/07 01:48:15;;;;;;;2.00;1.90;;;0.60;99.90;;;;;;5011836;28;20201;-66
2022/03/07 01:50:41;;;;;;;3.13;2.50;;;0.70;99.90;;;;;;5014432;28;20220;-66
2022/03/07 01:53:06;;;;;;;3.47;2.70;;;0.70;99.90;;;;;;5014740;28;20263;-66
2022/03/07 01:55:32;;;;;;;4.93;2.80;;;0.70;99.90;;;;;;5011911;28;20685;-65
2022/03/07 01:57:57;;;;;;;3.43;2.50;;;0.70;99.90;;;;;;5012042;28;20222;-66
2022/03/07 02:00:25;;;;;;;2.97;2.80;;;0.70;99.90;;;;;;5014554;28;20185;-66
2022/03/07 02:02:53;;;;;;;5.90;2.00;;;0.70;99.90;;;;;;5014636;28;20172;-65
2022/03/07 02:05:18;;;;;;;5.00;3.57;;;0.70;99.90;;;;;;5014434;28;20901;-65
2022/03/07 02:07:44;;;;;;;4.70;2.10;;;0.80;99.90;;;;;;5003028;28;20428;-66
2022/03/07 02:10:11;;;;;;;2.70;2.20;;;0.80;99.90;;;;;;4996395;28;20204;-65
2022/03/07 02:12:36;;;;;;;4.67;2.63;;;0.80;99.90;;;;;;4993593;28;20878;-65
2022/03/07 02:15:03;;;;;;;4.13;2.77;;;0.80;99.90;;;;;;4994881;28;20455;-67
2022/03/07 02:17:29;;;;;;;6.20;2.60;;;0.80;99.90;;;;;;4995038;28;20169;-66
2022/03/07 02:19:55;;;;;;;4.60;3.03;;;0.90;99.90;;;;;;4995064;28;20427;-66
2022/03/07 02:22:21;;;;;;;2.20;2.07;;;0.90;99.90;;;;;;4994710;28;20177;-65
2022/03/07 02:24:47;;;;;;;2.90;2.40;;;0.90;99.90;;;;;;4994901;28;20208;-66
2022/03/07 02:27:15;;;;;;;4.53;4.03;;;1.00;99.90;;;;;;4994914;28;20764;-66
2022/03/07 02:29:40;;;;;;;3.27;2.67;;;0.90;99.90;;;;;;4993376;28;20720;-66
2022/03/07 02:32:07;;;;;;;3.10;2.80;;;0.90;99.90;;;;;;4994600;28;20518;-65
2022/03/07 02:34:32;;;;;;;3.33;2.83;;;0.90;99.90;;;;;;4994286;28;20600;-65
2022/03/07 02:36:58;;;;;;;5.30;2.60;;;0.90;99.90;;;;;;4994631;28;20457;-66
2022/03/07 02:39:24;;;;;;;3.23;2.20;;;0.80;99.90;;;;;;4994270;28;20169;-66
2022/03/07 02:41:49;;;;;;;2.33;2.23;;;0.80;99.90;;;;;;4994372;28;20215;-66
2022/03/07 02:44:15;;;;;;;1.87;1.77;;;0.70;99.90;;;;;;4994521;28;20172;-66
2022/03/07 02:46:41;;;;;;;4.13;2.00;;;0.60;99.90;;;;;;4994441;28;20669;-66
2022/03/07 02:49:07;;;;;;;3.13;1.93;;;0.60;99.90;;;;;;4994627;28;20197;-66
2022/03/07 02:51:33;;;;;;;3.57;3.30;;;0.50;99.90;;;;;;4994232;28;20280;-65
2022/03/07 02:53:59;;;;;;;2.83;1.83;;;0.50;99.90;;;;;;4994206;28;20405;-66
2022/03/07 02:56:24;;;;;;;2.80;2.10;;;0.50;99.90;;;;;;4994036;28;20462;-66
2022/03/07 02:58:50;;;;;;;3.73;3.00;;;0.40;99.90;;;;;;4994114;28;20196;-66
2022/03/07 03:01:15;;;;;;;2.80;2.50;;;0.40;99.90;;;;;;4992812;28;20191;-65
2022/03/07 03:03:41;;;;;;;2.07;1.90;;;0.30;99.90;;;;;;4993739;28;20713;-65
2022/03/07 03:06:06;;;;;;;2.67;2.43;;;0.30;99.90;;;;;;4993888;28;20176;-66
2022/03/07 03:08:32;;;;;;;2.10;1.97;;;0.30;99.90;;;;;;4994014;28;20180;-65
2022/03/07 03:10:57;;;;;;;2.57;1.90;;;0.30;99.90;;;;;;4994010;28;20484;-66
2022/03/07 03:13:24;;;;;;;2.27;2.07;;;0.30;99.90;;;;;;4993835;28;20188;-66
2022/03/07 03:15:51;;;;;;;2.43;2.23;;;0.20;99.90;;;;;;4992371;28;20745;-66
2022/03/07 03:18:18;;;;;;;2.60;1.90;;;0.30;99.90;;;;;;4993684;28;20412;-65
2022/03/07 03:20:45;;;;;;;4.70;3.53;;;0.30;99.90;;;;;;4992602;28;20439;-67
2022/03/07 03:23:11;;;;;;;3.43;2.13;;;0.30;99.90;;;;;;4993649;28;20462;-66
2022/03/07 03:25:36;;;;;;;2.33;1.70;;;0.30;99.90;;;;;;4993434;28;20420;-67
2022/03/07 03:28:03;;;;;;;2.33;2.10;;;0.30;99.90;;;;;;4993750;28;20408;-66
2022/03/07 03:30:28;;;;;;;4.43;3.40;;;0.30;99.90;;;;;;4993425;28;20326;-66
2022/03/07 03:32:54;;;;;;;3.50;3.20;;;0.20;99.90;;;;;;4993584;28;20495;-66
2022/03/07 03:35:19;;;;;;;2.23;2.00;;;0.10;99.90;;;;;;4993370;28;20687;-67
2022/03/07 03:37:45;;;;;;;3.27;2.70;;;0.10;99.90;;;;;;4993502;28;20303;-66
2022/03/07 03:40:12;;;;;;;3.53;3.27;;;0.20;99.90;;;;;;4993161;28;20332;-66
2022/03/07 03:42:38;;;;;;;2.83;2.63;;;0.20;99.90;;;;;;4993132;28;20180;-66
2022/03/07 03:45:05;;;;;;;2.73;2.57;;;0.20;99.90;;;;;;4992927;28;20492;-66
2022/03/07 03:47:32;;;;;;;3.00;2.50;;;0.10;99.90;;;;;;4993485;28;20937;-67
2022/03/07 03:49:57;;;;;;;3.90;3.57;;;0.10;99.90;;;;;;4993029;28;20443;-67
2022/03/07 03:52:23;;;;;;;4.27;3.47;;;0.00;99.90;;;;;;4993050;28;20412;-66
2022/03/07 03:54:49;;;;;;;2.50;2.30;;;-0.10;99.90;;;;;;4992888;28;20274;-67
2022/03/07 03:57:14;;;;;;;4.10;2.20;;;0.00;99.90;;;;;;4993039;28;20173;-67
2022/03/07 03:59:40;;;;;;;4.77;3.97;;;-0.10;99.90;;;;;;4992840;28;20231;-67
2022/03/07 04:02:05;;;;;;;2.10;2.00;;;-0.10;99.90;;;;;;4993088;28;20259;-67
2022/03/07 04:04:31;;;;;;;3.00;2.50;;;-0.10;99.90;;;;;;4992829;28;20241;-66
2022/03/07 04:06:56;;;;;;;2.03;1.83;;;-0.10;99.90;;;;;;4993118;28;20641;-67
2022/03/07 04:09:22;;;;;;;4.13;3.07;;;-0.10;99.90;;;;;;4995637;28;20184;-67
2022/03/07 04:11:49;;;;;;;2.43;2.23;;;0.00;99.90;;;;;;5008803;28;20180;-67
2022/03/07 04:14:14;;;;;;;2.30;2.20;;;0.00;99.90;;;;;;5012021;28;20202;-67
2022/03/07 04:16:41;;;;;;;2.07;1.87;;;0.10;99.90;;;;;;5012085;28;20510;-68
2022/03/07 04:19:08;;;;;;;2.50;2.30;;;0.00;99.90;;;;;;5012399;28;20188;-68
2022/03/07 04:21:34;;;;;;;20.03;3.07;;;0.00;99.90;;;;;;5011689;28;20436;-67
2022/03/07 04:24:00;;;;;;;3.00;2.80;;;0.00;99.90;;;;;;5012133;28;20511;-67
2022/03/07 04:26:26;;;;;;;4.60;2.83;;;-0.10;99.90;;;;;;5012029;28;20490;-67
2022/03/07 04:28:52;;;;;;;2.40;2.30;;;-0.10;99.90;;;;;;5012040;28;20763;-67
2022/03/07 04:31:17;;;;;;;3.00;2.80;;;-0.10;99.90;;;;;;5011941;28;20215;-67
2022/03/07 04:33:43;;;;;;;2.93;2.60;;;-0.10;99.90;;;;;;5012070;28;20213;-67
2022/03/07 04:36:09;;;;;;;5.70;4.40;;;-0.20;99.90;;;;;;5011745;28;20200;-67
2022/03/07 04:38:35;;;;;;;3.00;2.73;;;-0.20;99.90;;;;;;5011825;28;20187;-68
2022/03/07 04:41:00;;;;;;;3.27;3.00;;;-0.10;99.90;;;;;;5011641;28;20825;-67
2022/03/07 04:43:26;;;;;;;5.43;2.47;;;-0.10;99.90;;;;;;5011821;28;20241;-68
2022/03/07 04:45:52;;;;;;;4.23;2.83;;;-0.10;99.90;;;;;;5011588;28;20643;-68
2022/03/07 04:48:19;;;;;;;3.83;3.50;;;-0.20;99.90;;;;;;5011994;28;20230;-68
2022/03/07 04:50:44;;;;;;;4.47;2.80;;;-0.20;99.90;;;;;;5011910;28;20969;-68
2022/03/07 04:53:10;;;;;;;3.63;2.50;;;-0.20;99.90;;;;;;5012003;28;20414;-67
2022/03/07 04:55:35;;;;;;;5.70;2.70;;;-0.20;99.90;;;;;;5011796;28;20483;-68
2022/03/07 04:58:01;;;;;;;2.70;2.50;;;-0.20;99.90;;;;;;5011808;28;20172;-68
2022/03/07 05:00:26;;;;;;;6.30;3.20;;;-0.20;99.90;;;;;;5011841;28;20275;-68
2022/03/07 05:02:53;;;;;;;5.50;3.63;;;-0.20;99.90;;;;;;5011604;28;20177;-67
2022/03/07 05:05:19;;;;;;;2.63;2.30;;;-0.20;99.90;;;;;;5011720;28;20179;-67
2022/03/07 05:07:44;;;;;;;3.13;2.77;;;-0.10;99.90;;;;;;5011393;28;20411;-67
2022/03/07 05:10:10;;;;;;;2.80;2.60;;;-0.10;99.90;;;;;;5011461;28;20612;-69
2022/03/07 05:12:35;;;;;;;4.00;2.20;;;-0.10;99.90;;;;;;5011361;28;20176;-68
2022/03/07 05:15:02;;;;;;;2.57;2.37;;;-0.20;99.90;;;;;;5011326;28;20683;-68
2022/03/07 05:17:27;;;;;;;3.83;3.40;;;-0.20;99.90;;;;;;4993820;28;20274;-68
2022/03/07 05:19:52;;;;;;;3.10;2.77;;;-0.20;99.90;;;;;;5011211;28;20510;-68
2022/03/07 05:22:18;;;;;;;3.53;2.73;;;-0.20;99.90;;;;;;5011335;28;20176;-67
2022/03/07 05:24:44;;;;;;;3.53;2.30;;;-0.20;99.90;;;;;;5011223;28;20203;-68
2022/03/07 05:27:09;;;;;;;2.67;2.47;;;-0.20;99.90;;;;;;5011320;28;20263;-68
2022/03/07 05:29:36;;;;;;;3.40;3.10;;;-0.20;99.90;;;;;;5011540;28;20180;-68
2022/03/07 05:32:02;;;;;;;2.10;2.00;;;-0.30;99.90;;;;;;5011089;28;20267;-68
2022/03/07 05:34:27;;;;;;;2.97;2.73;;;-0.40;99.90;;;;;;5014799;28;20897;-67
2022/03/07 05:36:53;;;;;;;3.60;3.33;;;-0.30;99.90;;;;;;5014808;28;20476;-68
2022/03/07 05:39:19;;;;;;;3.60;3.40;;;-0.30;99.90;;;;;;5014740;28;20645;-68
2022/03/07 05:41:44;;;;;;;2.23;2.03;;;-0.30;99.90;;;;;;5014710;28;20400;-68
2022/03/07 05:44:10;;;;;;;2.23;2.10;;;-0.30;99.90;;;;;;5015164;28;20184;-68
2022/03/07 05:46:36;;;;;;;3.83;3.37;;;-0.30;99.90;;;;;;5015393;28;20543;-68
2022/03/07 05:49:02;;;;;;;3.77;3.50;;;-0.30;99.90;;;;;;5014773;28;20635;-68
2022/03/07 05:51:27;;;;;;;4.33;4.03;;;-0.20;99.90;;;;;;5014527;28;20188;-68
2022/03/07 05:53:53;;;;;;;2.63;2.43;;;-0.30;99.90;;;;;;5014254;28;20406;-69
2022/03/07 05:56:19;;;;;;;3.53;3.33;;;-0.20;99.90;;;;;;5014145;28;20196;-68
2022/03/07 05:58:46;;;;;;;7.23;5.33;;;-0.20;99.90;;;;;;5014247;28;20932;-68
2022/03/07 06:01:13;;;;;;;7.50;3.50;;;-0.20;99.90;;;;;;5014193;28;20196;-68
2022/03/07 06:03:38;;;;;;;2.90;2.67;;;-0.20;99.90;;;;;;5013955;28;20973;-68
2022/03/07 06:06:03;;;;;;;3.10;2.90;;;-0.20;99.90;;;;;;5013852;28;20479;-68
2022/03/07 06:08:29;;;;;;;3.90;3.60;;;-0.30;99.90;;;;;;5013978;28;20183;-68
2022/03/07 06:10:55;;;;;;;3.83;3.50;;;-0.20;99.90;;;;;;5010133;28;20695;-68
2022/03/07 06:13:20;;;;;;;6.63;3.67;;;-0.10;99.90;;;;;;5008340;28;20651;-69
2022/03/07 06:15:47;;;;;;;3.50;2.37;;;-0.10;99.90;;;;;;5013774;28;20511;-68
2022/03/07 06:18:12;;;;;;;4.27;3.80;;;-0.10;99.90;;;;;;5013900;28;20633;-68
2022/03/07 06:20:38;;;;;;;4.87;3.60;;;-0.10;99.90;;;;;;5013759;28;20415;-68
2022/03/07 06:23:07;;;;;;;3.57;3.27;;;-0.10;99.90;;;;;;5013797;28;20406;-67
2022/03/07 06:25:35;;;;;;;3.57;3.17;;;0.00;99.90;;;;;;5013438;28;20176;-68
2022/03/07 06:28:02;;;;;;;2.77;2.57;;;0.00;99.90;;;;;;5013813;28;20411;-66
2022/03/07 06:30:28;;;;;;;3.00;2.73;;;0.00;99.90;;;;;;5013447;28;20850;-67
2022/03/07 06:32:53;;;;;;;4.77;3.43;;;0.10;99.90;;;;;;5013720;28;20415;-67
2022/03/07 06:35:19;;;;;;;7.53;3.33;;;0.10;99.90;;;;;;5013503;28;20203;-67
2022/03/07 06:37:52;;;;;;;4.30;3.50;;;0.20;99.90;;;;;;5013428;28;20242;-67
2022/03/07 06:40:18;;;;;;;3.57;3.27;;;0.30;99.90;;;;;;5013290;28;20212;-67
2022/03/07 06:42:46;;;;;;;5.27;4.87;;;0.40;99.90;;;;;;5013400;28;20437;-67
2022/03/07 06:45:12;;;;;;;5.10;3.60;;;1.00;99.90;;;;;;5012880;28;20438;-65
2022/03/07 06:47:42;;;;;;;4.03;3.70;;;1.30;99.90;;;;;;5013399;28;20415;-68
2022/03/07 06:50:08;;;;;;;5.73;4.30;;;1.50;99.90;;;;;;5013222;28;20439;-68
2022/03/07 06:52:34;;;;;;;4.37;3.70;;;1.70;99.90;;;;;;5013151;28;20407;-68
2022/03/07 06:54:59;;;;;;;5.57;3.90;;;1.90;99.90;;;;;;5013265;28;20458;-68
2022/03/07 06:57:25;;;;;;;3.47;3.17;;;2.90;99.90;;;;;;5013324;28;20629;-68
2022/03/07 06:59:51;;;;;;;3.23;2.70;;;3.10;99.90;;;;;;5013195;28;20192;-67
2022/03/07 07:02:17;;;;;;;3.43;3.13;;;2.20;99.90;;;;;;5013018;28;20173;-68
2022/03/07 07:04:43;;;;;;;5.53;3.73;;;2.80;99.90;;;;;;5013248;28;20180;-68
2022/03/07 07:07:09;;;;;;;3.50;3.20;;;3.30;99.90;;;;;;5013049;28;20494;-68
2022/03/07 07:09:34;;;;;;;6.13;4.20;;;3.90;99.90;;;;;;5013377;28;20494;-67
2022/03/07 07:12:00;;;;;;;3.83;3.47;;;4.90;99.90;;;;;;5013659;28;20553;-67
2022/03/07 07:14:25;;;;;;;3.97;3.10;;;5.20;99.90;;;;;;5012886;28;20194;-68
2022/03/07 07:16:51;;;;;;;6.67;4.20;;;4.60;99.90;;;;;;5012941;28;20180;-67
2022/03/07 07:19:16;;;;;;;4.33;3.17;;;5.00;99.90;;;;;;5012796;28;20647;-67
2022/03/07 07:21:42;;;;;;;6.23;3.90;;;6.00;99.90;;;;;;5012501;28;20368;-67
2022/03/07 07:24:07;;;;;;;3.30;3.00;;;5.90;99.90;;;;;;5012649;28;20170;-68
2022/03/07 07:26:33;;;;;;;5.97;3.60;;;5.90;99.90;;;;;;5012523;28;20186;-66
2022/03/07 07:28:58;;;;;;;6.80;3.70;;;5.90;99.90;;;;;;5012610;28;20673;-68
2022/03/07 07:31:24;;;;;;;3.80;3.40;;;5.00;99.90;;;;;;5012659;28;20201;-68
2022/03/07 07:33:49;;;;;;;6.60;3.87;;;5.50;99.90;;;;;;5012337;28;20554;-67
2022/03/07 07:36:15;;;;;;;4.53;3.33;;;6.40;99.90;;;;;;5012179;28;20204;-67
2022/03/07 07:38:40;;;;;;;3.27;2.93;;;7.30;99.90;;;;;;5007941;28;20258;-67
2022/03/07 07:41:06;;;;;;;5.23;3.30;;;7.20;99.90;;;;;;5009842;28;20199;-68
2022/03/07 07:43:33;;;;;;;3.43;3.00;;;5.70;99.90;;;;;;4997782;28;20533;-67
2022/03/07 07:45:58;;;;;;;4.07;3.10;;;6.00;99.90;;;;;;4994937;28;20459;-68
2022/03/07 07:48:24;;;;;;;6.57;3.90;;;7.20;99.90;;;;;;4992996;28;20444;-67
2022/03/07 07:50:49;;;;;;;3.77;3.37;;;6.30;99.90;;;;;;4992279;28;20193;-67
2022/03/07 07:53:15;;;;;;;4.33;2.37;;;6.60;99.90;;;;;;4992959;28;20176;-67
2022/03/07 07:55:40;;;;;;;6.37;3.60;;;7.60;99.90;;;;;;5003659;28;20686;-68
2022/03/07 07:58:06;;;;;;;4.37;3.63;;;7.30;99.90;;;;;;5011965;28;20254;-68
2022/03/07 08:00:31;;;;;;;6.07;3.90;;;7.00;99.90;;;;;;5011698;28;20193;-67
2022/03/07 08:02:57;;;;;;;5.80;2.10;;;6.90;99.90;;;;;;5011735;28;20615;-67
2022/03/07 08:05:22;;;;;;;3.83;2.83;;;7.30;99.90;;;;;;5011835;28;20173;-67
2022/03/07 08:07:48;;;;;;;5.33;3.60;;;8.60;99.90;;;;;;5011820;28;20172;-67
2022/03/07 08:10:15;;;;;;;5.00;3.63;;;9.50;99.90;;;;;;5012415;28;20282;-67
2022/03/07 08:12:41;;;;;;;4.53;3.60;;;8.60;99.90;;;;;;5003836;28;20552;-68
2022/03/07 08:15:14;;;;;;;4.20;3.63;;;8.10;99.90;;;;;;4998551;28;20525;-69
2022/03/07 08:17:46;;;;;;;4.27;3.50;;;7.50;99.90;;;;;;5002886;28;20551;-68
2022/03/07 08:20:13;;;;;;;5.67;3.90;;;7.00;99.90;;;;;;5012173;28;21020;-69
2022/03/07 08:22:39;;;;;;;9.73;3.80;;;7.10;99.90;;;;;;4995746;28;20438;-68
2022/03/07 08:25:05;;;;;;;4.90;3.43;;;7.90;99.90;;;;;;4992312;28;20755;-68
2022/03/07 08:27:32;;;;;;;4.00;2.90;;;7.50;99.90;;;;;;4992434;28;20493;-68
2022/03/07 08:29:58;;;;;;;6.33;3.90;;;8.00;99.90;;;;;;4992181;28;20494;-68
2022/03/07 08:32:23;;;;;;;4.00;3.00;;;8.80;99.90;;;;;;4991810;28;20494;-67
2022/03/07 08:34:49;;;;;;;5.63;3.87;;;10.20;99.90;;;;;;5005649;28;20205;-66
2022/03/07 08:37:14;;;;;;;4.70;4.30;;;8.90;99.90;;;;;;5012460;28;20187;-67
2022/03/07 08:39:40;;;;;;;5.20;3.40;;;8.00;99.90;;;;;;5010927;28;20210;-67
2022/03/07 08:42:05;;;;;;;7.80;3.13;;;8.10;99.90;;;;;;5011345;28;20194;-67
2022/03/07 08:44:31;;;;;;;4.80;3.93;;;8.10;99.90;;;;;;5011055;28;20180;-67
2022/03/07 08:46:56;;;;;;;4.03;2.97;;;10.10;99.90;;;;;;5010808;28;20200;-67
2022/03/07 08:49:22;;;;;;;7.03;3.60;;;10.30;99.90;;;;;;5009050;28;20184;-67
2022/03/07 08:51:47;;;;;;;5.83;3.83;;;9.90;99.90;;;;;;5015243;28;20187;-67
2022/03/07 08:54:14;;;;;;;7.33;3.80;;;10.80;99.90;;;;;;5015474;28;20532;-67
2022/03/07 08:56:40;;;;;;;4.50;4.10;;;10.20;99.90;;;;;;5022236;28;20208;-66
2022/03/07 08:59:05;;;;;;;4.10;3.70;;;8.80;99.90;;;;;;5030707;28;20414;-67
2022/03/07 09:01:31;;;;;;;3.70;3.37;;;10.10;99.90;;;;;;5030404;28;20699;-67
2022/03/07 09:03:57;;;;;;;4.43;4.03;;;9.80;99.90;;;;;;5030507;28;20221;-67
2022/03/07 09:06:22;;;;;;;5.50;3.60;;;10.00;99.90;;;;;;5030618;28;20258;-66
2022/03/07 09:08:48;;;;;;;4.77;3.83;;;10.30;99.50;;;;;;5018555;28;20421;-68
2022/03/07 09:11:13;;;;;;;4.00;3.50;;;10.70;99.20;;;;;;5010881;28;20191;-68
2022/03/07 09:13:39;;;;;;;3.83;3.20;;;11.20;96.90;;;;;;5010875;28;20267;-68
2022/03/07 09:16:04;;;;;;;3.63;3.00;;;11.50;97.20;;;;;;5010723;28;20221;-67
2022/03/07 09:18:30;;;;;;;4.93;3.57;;;11.20;95.90;;;;;;5010979;28;20174;-67
2022/03/07 09:20:57;;;;;;;4.30;2.90;;;11.20;96.20;;;;;;5011185;28;20542;-67
2022/03/07 09:23:23;;;;;;;4.20;3.27;;;11.40;93.70;;;;;;5011238;28;20190;-67
2022/03/07 09:25:48;;;;;;;3.10;2.63;;;11.60;94.70;;;;;;5010197;28;20416;-66
2022/03/07 09:28:14;;;;;;;4.23;3.10;;;12.30;93.60;;;;;;5007897;28;20571;-66
2022/03/07 09:30:39;;;;;;;3.03;2.73;;;12.40;92.20;;;;;;4999996;28;20193;-67
2022/03/07 09:33:05;;;;;;;3.50;3.20;;;12.30;90.70;;;;;;5010451;28;20213;-66
2022/03/07 09:35:32;;;;;;;2.87;2.67;;;12.20;91.30;;;;;;5011924;28;20219;-68
2022/03/07 09:37:57;;;;;;;3.37;3.07;;;12.30;90.90;;;;;;5012741;28;20255;-66
2022/03/07 09:40:23;;;;;;;3.20;2.90;;;11.90;91.10;;;;;;5012535;28;20560;-67
2022/03/07 09:42:48;;;;;;;3.90;2.87;;;11.20;91.90;;;;;;5010795;28;20644;-68
2022/03/07 09:45:14;;;;;;;3.20;2.70;;;10.80;93.00;;;;;;5010975;28;20237;-67
2022/03/07 09:47:42;;;;;;;5.07;3.10;;;10.50;92.60;;;;;;5010404;28;20566;-67
2022/03/07 09:50:09;;;;;;;3.03;2.83;;;10.30;93.50;;;;;;5011596;28;20288;-65
2022/03/07 09:52:35;;;;;;;3.97;3.30;;;9.80;94.50;;;;;;5011381;28;20416;-66
2022/03/07 09:55:01;;;;;;;4.83;3.20;;;10.50;94.20;;;;;;5011157;28;20465;-66
2022/03/07 09:57:26;;;;;;;4.17;3.17;;;9.70;95.50;;;;;;5011151;28;20866;-66
2022/03/07 09:59:52;;;;;;;3.37;2.87;;;9.40;95.50;;;;;;5010884;28;20442;-66
2022/03/07 10:02:24;;;;;;;2.87;2.57;;;9.70;95.40;;;;;;5010888;28;20166;-68
2022/03/07 10:04:50;;;;;;;3.87;2.80;;;8.80;96.10;;;;;;5011210;28;20164;-68
2022/03/07 10:07:15;;;;;;;3.10;2.80;;;8.90;96.30;;;;;;5010845;28;20407;-68
2022/03/07 10:09:41;;;;;;;4.10;2.83;;;8.40;96.90;;;;;;5010819;28;20219;-68
2022/03/07 10:12:08;;;;;;;2.37;2.17;;;8.30;97.70;;;;;;5011450;28;20169;-66
2022/03/07 10:14:44;;;;;;;4.60;2.70;;;8.00;98.10;;;;;;5011380;28;20905;-65
2022/03/07 10:17:19;;;;;;;3.57;2.77;;;7.50;98.80;;;;;;5007911;28;20414;-66
2022/03/07 10:19:46;;;;;;;3.90;2.60;;;7.40;99.80;;;;;;5013232;28;20423;-65
2022/03/07 10:22:19;;;;;;;2.57;2.37;;;7.40;99.20;;;;;;5014414;28;20422;-66
2022/03/07 10:24:45;;;;;;;2.67;2.07;;;7.00;99.20;;;;;;5014123;28;20766;-66
2022/03/07 10:27:23;;;;;;;2.70;2.20;;;6.90;99.90;;;;;;5014246;28;20430;-66
2022/03/07 10:29:48;;;;;;;2.80;2.23;;;6.80;99.90;;;;;;5014188;28;20921;-67
2022/03/07 10:32:17;;;;;;;2.93;2.00;;;6.70;99.90;;;;;;5014144;28;20399;-67
2022/03/07 10:34:43;;;;;;;4.23;2.30;;;6.70;99.90;;;;;;5013856;28;20221;-67
2022/03/07 10:37:09;;;;;;;10.10;2.10;;;6.40;99.90;;;;;;5014278;28;20773;-67
2022/03/07 10:39:35;;;;;;;3.87;2.90;;;6.50;99.90;;;;;;5013824;28;20411;-66
2022/03/07 10:42:00;;;;;;;3.30;2.03;;;6.50;99.90;;;;;;5013886;28;20399;-66
2022/03/07 10:44:34;;;;;;;3.03;2.63;;;6.70;99.90;;;;;;5014205;28;20161;-67
2022/03/07 10:47:07;;;;;;;3.60;2.40;;;6.50;99.90;;;;;;5014135;28;20649;-67
2022/03/07 10:49:33;;;;;;;5.10;3.70;;;6.70;99.90;;;;;;5014759;28;20794;-67
2022/03/07 10:52:02;;;;;;;3.50;2.80;;;6.90;99.90;;;;;;5013328;28;20542;-67
2022/03/07 10:54:27;;;;;;;5.67;2.70;;;6.80;99.90;;;;;;5014090;28;20263;-66
2022/03/07 10:56:55;;;;;;;4.70;2.97;;;6.90;99.90;;;;;;5013881;28;20491;-66
2022/03/07 10:59:29;;;;;;;4.27;2.33;;;6.70;99.90;;;;;;5013603;28;20160;-66
2022/03/07 11:02:16;;;;;;;2.67;2.10;;;6.60;99.90;;;;;;5014673;28;20418;-67
2022/03/07 11:04:48;;;;;;;2.30;2.10;;;6.60;99.90;;;;;;5013279;28;20402;-66
2022/03/07 11:07:14;;;;;;;2.00;1.80;;;6.60;99.90;;;;;;5013461;28;20842;-66
2022/03/07 11:09:41;;;;;;;3.40;2.43;;;6.80;99.90;;;;;;5013265;28;20477;-67
2022/03/07 11:12:15;;;;;;;2.33;2.13;;;6.60;99.90;;;;;;5010346;28;20424;-67
2022/03/07 11:14:55;;;;;;;2.47;2.30;;;6.60;99.90;;;;;;5012640;28;20909;-66
2022/03/07 11:17:21;;;;;;;2.27;2.03;;;6.70;99.90;;;;;;5012989;28;20732;-66
2022/03/07 11:19:53;;;;;;;3.73;2.03;;;6.80;99.90;;;;;;5012791;28;20844;-67
2022/03/07 11:22:27;;;;;;;1.87;1.70;;;6.90;99.70;;;;;;5011275;28;20922;-67
2022/03/07 11:24:54;;;;;;;4.77;1.70;;;7.00;98.60;;;;;;5012610;28;20415;-68
2022/03/07 11:27:20;;;;;;;2.40;1.63;;;6.90;97.60;;;;;;5012951;28;20403;-66
2022/03/07 11:29:46;;;;;;;2.40;1.70;;;6.70;98.20;;;;;;5004326;28;21033;-66
2022/03/07 11:32:18;;;;;;;2.03;1.50;;;7.00;98.50;;;;;;5012858;28;20418;-66
2022/03/07 11:34:56;;;;;;;2.60;2.10;;;7.20;98.70;;;;;;5013602;28;21005;-66
2022/03/07 11:37:29;;;;;;;2.17;1.70;;;7.00;97.80;;;;;;5012770;28;20403;-66
2022/03/07 11:39:56;;;;;;;2.80;2.13;;;7.10;97.50;;;;;;5015559;28;20481;-66
2022/03/07 11:42:35;;;;;;;4.23;2.13;;;7.00;97.40;;;;;;5023931;28;20433;-67
2022/03/07 11:45:18;;;;;;;3.13;2.60;;;7.10;97.50;;;;;;5012633;28;20403;-66
2022/03/07 11:47:48;;;;;;;3.33;1.60;;;7.20;97.90;;;;;;5009116;28;20854;-66
2022/03/07 11:50:22;;;;;;;1.50;1.27;;;7.40;97.60;;;;;;5012152;28;20469;-67
2022/03/07 11:52:48;;;;;;;3.00;1.57;;;7.30;95.00;;;;;;5006632;28;20529;-65
2022/03/07 11:55:20;;;;;;;1.80;1.30;;;7.30;94.50;;;;;;5011958;28;20550;-68
2022/03/07 11:57:57;;;;;;;3.90;2.20;;;7.40;94.90;;;;;;5012257;28;20462;-67
2022/03/07 12:00:35;;;;;;;1.80;1.53;;;7.50;95.00;;;;;;5012160;28;20799;-67
2022/03/07 12:03:41;;;;;;;1.07;0.97;;;7.60;95.10;;;;;;5011816;28;20906;-66
2022/03/07 12:06:10;;;;;;;3.80;2.63;;;7.70;94.70;;;;;;5002882;28;20523;-66
2022/03/07 12:08:51;;;;;;;1.10;1.00;;;7.80;94.00;;;;;;5012381;28;20415;-67
2022/03/07 12:11:29;;;;;;;2.07;1.87;;;7.70;94.10;;;;;;5011805;28;20490;-68
2022/03/07 12:14:08;;;;;;;4.10;1.70;;;7.80;94.10;;;;;;5012412;28;20429;-66
2022/03/07 12:16:45;;;;;;;1.97;1.70;;;7.80;93.70;;;;;;5012385;28;20548;-67
2022/03/07 12:19:23;;;;;;;1.60;1.50;;;7.90;93.70;;;;;;5012455;28;20399;-66
2022/03/07 12:21:52;;;;;;;2.20;1.80;;;7.90;93.60;;;;;;5012024;28;20403;-66
2022/03/07 12:24:24;;;;;;;2.27;1.53;;;8.00;93.60;;;;;;5004575;28;20424;-66
2022/03/07 12:26:56;;;;;;;2.60;1.50;;;8.10;93.30;;;;;;5011995;28;20415;-66
2022/03/07 12:29:34;;;;;;;1.70;1.60;;;8.10;93.20;;;;;;5011999;28;20465;-66
2022/03/07 12:32:06;;;;;;;2.00;1.47;;;8.20;92.80;;;;;;5011351;28;20437;-65
2022/03/07 12:34:40;;;;;;;1.80;1.10;;;8.30;91.80;;;;;;5011700;28;20418;-67
2022/03/07 12:37:17;;;;;;;1.73;1.63;;;8.50;91.20;;;;;;5009132;28;20474;-67
2022/03/07 12:39:51;;;;;;;1.60;1.30;;;8.40;86.80;;;;;;5011948;28;20869;-67
2022/03/07 12:42:25;;;;;;;1.43;1.13;;;8.30;85.90;;;;;;4994938;28;20412;-66
2022/03/07 12:44:55;;;;;;;1.30;1.17;;;8.30;86.20;;;;;;5011766;28;20418;-66
2022/03/07 12:47:36;;;;;;;1.47;1.37;;;8.40;87.10;;;;;;5011978;28;20411;-67
2022/03/07 12:50:05;;;;;;;1.63;1.53;;;8.40;86.90;;;;;;5011733;28;20886;-67
2022/03/07 12:52:40;;;;;;;1.90;1.33;;;8.50;88.20;;;;;;5011745;28;20435;-67
2022/03/07 12:55:13;;;;;;;1.77;1.13;;;8.50;87.90;;;;;;5011528;28;20459;-66